< < Back
Terminal Aerodrome Forecast


Current Version              Previous Versions:   1  2  3  4  5  6  7  8  9  

Terminal Aerodrome Forecast

695
FTUS42 KJAX 230500
TAFSSI
TAF
KSSI 230520Z 2306/2406 24007KT P6SM BKN060
     FM231200 29008KT P6SM SCT070
     FM231800 13010KT P6SM SCT060=



Latest METAR

667
SAUS70 KWBC 240800 RRL
MTRSSI
METAR KSSI 240753Z AUTO 00000KT 6SM BR CLR 17/16 A2992 RMK AO2 SLP133
T01720161 PWINO $


USA.gov is the U.S. government's official web portal to all federal, state and local government web resources and services.